PWSweather.com
Personal Weather Stations
Station Observations
KNYSYRAC2
Fairmount Hills, Fairmount, NY 13219

Fairmount HillsFairmount, NY 13219

Lat: 43.03602, Lon: -76.247151

Elevation: 663

Station Type: Ambient Weather WS-2080

http://weather.cerchia.com

Latest ConditionsUpdated 8:45:00 PM EDT Saturday, Oct 20, 2018
Currently Today's Max Today's Min Today's Average
Temperature 45.8°F7.7°C 55.8°F13.2°C 45.8°F7.7°C 51.9°F11.1°C
Dew Point 41.5°F5.3°C 48.3°F9.1°C 36.5°F2.5°C 41.5°F5.3°C
Winds 2.2 mph SW3.5 kmh SW 9.3 mph -15.0 kmh - - 4.9 mph 7.9 kmh
Wind Gusts 5.6 mph9.0 kmh 24.6 mph39.6 kmh - -
Humidity 85% 95% 51% 68%
Pressure 29.62 in1003.0 mb 29.70 in1005.8 mb 29.58 in1001.7 mb -
Precipitation - 0.01 in0.3 mm - -
Hour Temp Dew Point Humidity Winds Wind Gusts Pressure Precip Precip Rate Daily Precip Total
08:45 PM 45.8°F7.7°C 41.5°F5.3°C 85% 2.2 mph SW3.5 kmh SW 5.6 mph9.0 kmh 29.62 in1003.0 mb 0.00 in0.0 mm 0.00 in0.0 mm 0.01 in0.3 mm
08:30 PM 45.9°F7.7°C 41.4°F5.2°C 84% 1.0 mph W1.6 kmh W 3.9 mph6.3 kmh 29.63 in1003.4 mb 0.00 in0.0 mm 0.00 in0.0 mm 0.01 in0.3 mm
08:15 PM 46.5°F8.1°C 41.6°F5.3°C 83% 0.3 mph SW0.5 kmh SW 2.8 mph4.5 kmh 29.63 in1003.4 mb 0.00 in0.0 mm 0.00 in0.0 mm 0.01 in0.3 mm
08:00 PM 46.8°F8.2°C 41.9°F5.5°C 83% 1.7 mph WSW2.7 kmh WSW 4.8 mph7.7 kmh 29.63 in1003.4 mb 0.00 in0.0 mm 0.00 in0.0 mm 0.01 in0.3 mm
07:45 PM 47.2°F8.4°C 41.3°F5.2°C 80% 0.3 mph SSW0.5 kmh SSW 2.8 mph4.5 kmh 29.62 in1003.0 mb 0.00 in0.0 mm 0.00 in0.0 mm 0.01 in0.3 mm
07:30 PM 47.6°F8.7°C 40.7°F4.8°C 77% 0.9 mph S1.4 kmh S 4.8 mph7.7 kmh 29.63 in1003.4 mb 0.00 in0.0 mm 0.00 in0.0 mm 0.01 in0.3 mm
07:15 PM 47.9°F8.8°C 40.0°F4.4°C 74% 2.5 mph SW4.0 kmh SW 8.7 mph14.0 kmh 29.63 in1003.4 mb 0.00 in0.0 mm 0.00 in0.0 mm 0.01 in0.3 mm
07:00 PM 48.3°F9.1°C 39.7°F4.3°C 72% 1.3 mph SW2.1 kmh SW 5.6 mph9.0 kmh 29.62 in1003.0 mb 0.00 in0.0 mm 0.00 in0.0 mm 0.01 in0.3 mm
06:45 PM 48.6°F9.2°C 39.7°F4.3°C 71% 0.6 mph SSE1.0 kmh SSE 2.8 mph4.5 kmh 29.62 in1003.0 mb 0.00 in0.0 mm 0.00 in0.0 mm 0.01 in0.3 mm
06:30 PM 49.0°F9.4°C 38.9°F3.8°C 68% 1.4 mph S2.3 kmh S 3.9 mph6.3 kmh 29.61 in1002.7 mb 0.00 in0.0 mm 0.00 in0.0 mm 0.01 in0.3 mm
06:15 PM 49.2°F9.6°C 38.3°F3.5°C 66% 0.9 mph S1.4 kmh S 3.9 mph6.3 kmh 29.61 in1002.7 mb 0.00 in0.0 mm 0.00 in0.0 mm 0.01 in0.3 mm
06:00 PM 49.7°F9.8°C 37.6°F3.1°C 63% 1.8 mph WSW2.9 kmh WSW 5.6 mph9.0 kmh 29.61 in1002.7 mb 0.00 in0.0 mm 0.00 in0.0 mm 0.01 in0.3 mm
05:45 PM 49.9°F9.9°C 37.0°F2.8°C 61% 1.8 mph WSW2.9 kmh WSW 5.6 mph9.0 kmh 29.61 in1002.7 mb 0.00 in0.0 mm 0.00 in0.0 mm 0.01 in0.3 mm
05:30 PM 50.1°F10.1°C 37.1°F2.8°C 61% 3.1 mph NW5.0 kmh NW 6.7 mph10.8 kmh 29.61 in1002.7 mb 0.00 in0.0 mm 0.00 in0.0 mm 0.01 in0.3 mm
05:15 PM 50.3°F10.2°C 37.3°F2.9°C 61% 2.4 mph NW3.9 kmh NW 6.7 mph10.8 kmh 29.60 in1002.4 mb 0.00 in0.0 mm 0.00 in0.0 mm 0.01 in0.3 mm
05:00 PM 50.8°F10.4°C 37.4°F3.0°C 60% 2.5 mph NW4.0 kmh NW 7.5 mph12.1 kmh 29.61 in1002.7 mb 0.00 in0.0 mm 0.00 in0.0 mm 0.01 in0.3 mm
04:45 PM 51.2°F10.7°C 38.6°F3.7°C 62% 1.7 mph NE2.7 kmh NE 5.6 mph9.0 kmh 29.61 in1002.7 mb 0.00 in0.0 mm 0.00 in0.0 mm 0.01 in0.3 mm
04:30 PM 51.7°F10.9°C 38.7°F3.7°C 61% 3.3 mph N5.3 kmh N 12.3 mph19.8 kmh 29.60 in1002.4 mb 0.00 in0.0 mm 0.00 in0.0 mm 0.01 in0.3 mm
04:15 PM 52.4°F11.3°C 42.2°F5.7°C 68% 2.7 mph NNE4.3 kmh NNE 13.4 mph21.6 kmh 29.60 in1002.4 mb 0.00 in0.0 mm 0.00 in0.0 mm 0.01 in0.3 mm
04:00 PM 52.6°F11.4°C 41.9°F5.5°C 67% 2.9 mph W4.7 kmh W 13.4 mph21.6 kmh 29.60 in1002.4 mb 0.00 in0.0 mm 0.00 in0.0 mm 0.01 in0.3 mm
03:45 PM 53.1°F11.7°C 42.5°F5.8°C 67% 4.1 mph NW6.6 kmh NW 9.5 mph15.3 kmh 29.60 in1002.4 mb 0.00 in0.0 mm 0.00 in0.0 mm 0.01 in0.3 mm
03:30 PM 53.3°F11.8°C 43.4°F6.3°C 69% 4.9 mph W7.9 kmh W 11.5 mph18.5 kmh 29.60 in1002.4 mb 0.00 in0.0 mm 0.00 in0.0 mm 0.01 in0.3 mm
03:15 PM 52.6°F11.4°C 43.5°F6.4°C 71% 3.3 mph N5.3 kmh N 11.5 mph18.5 kmh 29.59 in1002.0 mb 0.00 in0.0 mm 0.00 in0.0 mm 0.01 in0.3 mm
03:00 PM 51.9°F11.1°C 45.6°F7.6°C 79% 2.3 mph WNW3.7 kmh WNW 7.5 mph12.1 kmh 29.59 in1002.0 mb 0.00 in0.0 mm 0.00 in0.0 mm 0.01 in0.3 mm
02:45 PM 51.0°F10.6°C 45.4°F7.4°C 81% 3.2 mph SW5.1 kmh SW 8.7 mph14.0 kmh 29.61 in1002.7 mb 0.00 in0.0 mm 0.00 in0.0 mm 0.01 in0.3 mm
02:30 PM 51.2°F10.7°C 43.2°F6.2°C 74% 3.7 mph SW6.0 kmh SW 8.7 mph14.0 kmh 29.62 in1003.0 mb 0.00 in0.0 mm 0.00 in0.0 mm 0.01 in0.3 mm
02:15 PM 53.1°F11.7°C 41.3°F5.2°C 64% 5.6 mph N9.0 kmh N 13.4 mph21.6 kmh 29.62 in1003.0 mb 0.00 in0.0 mm 0.00 in0.0 mm 0.01 in0.3 mm
02:00 PM 54.8°F12.7°C 42.0°F5.6°C 62% 4.0 mph N6.4 kmh N 16.2 mph26.1 kmh 29.61 in1002.7 mb 0.00 in0.0 mm 0.00 in0.0 mm 0.01 in0.3 mm
01:45 PM 54.9°F12.7°C 41.7°F5.4°C 61% 3.7 mph NW6.0 kmh NW 12.3 mph19.8 kmh 29.62 in1003.0 mb 0.00 in0.0 mm 0.00 in0.0 mm 0.01 in0.3 mm
01:30 PM 54.4°F12.4°C 41.2°F5.1°C 61% 2.9 mph WSW4.7 kmh WSW 8.7 mph14.0 kmh 29.61 in1002.7 mb 0.00 in0.0 mm 0.00 in0.0 mm 0.01 in0.3 mm
01:15 PM 54.4°F12.4°C 40.4°F4.7°C 59% 5.5 mph W8.9 kmh W 12.3 mph19.8 kmh 29.62 in1003.0 mb 0.00 in0.0 mm 0.00 in0.0 mm 0.01 in0.3 mm
01:00 PM 54.9°F12.7°C 40.9°F4.9°C 59% 5.1 mph WNW8.2 kmh WNW 11.5 mph18.5 kmh 29.63 in1003.4 mb 0.00 in0.0 mm 0.00 in0.0 mm 0.01 in0.3 mm
12:45 PM 55.3°F12.9°C 40.8°F4.9°C 58% 5.4 mph WNW8.7 kmh WNW 17.1 mph27.5 kmh 29.64 in1003.7 mb 0.00 in0.0 mm 0.00 in0.0 mm 0.01 in0.3 mm
12:30 PM 55.8°F13.2°C 42.2°F5.7°C 60% 3.5 mph NW5.6 kmh NW 9.5 mph15.3 kmh 29.64 in1003.7 mb 0.00 in0.0 mm 0.00 in0.0 mm 0.01 in0.3 mm
12:15 PM 55.3°F12.9°C 42.1°F5.6°C 61% 4.6 mph NW7.4 kmh NW 18.2 mph29.3 kmh 29.64 in1003.7 mb 0.00 in0.0 mm 0.00 in0.0 mm 0.01 in0.3 mm
12:00 PM 54.6°F12.6°C 41.8°F5.4°C 62% 5.6 mph WSW9.0 kmh WSW 16.2 mph26.1 kmh 29.64 in1003.7 mb 0.00 in0.0 mm 0.00 in0.0 mm 0.01 in0.3 mm
11:45 AM 54.2°F12.3°C 41.5°F5.3°C 62% 6.4 mph WSW10.3 kmh WSW 15.1 mph24.3 kmh 29.65 in1004.1 mb 0.00 in0.0 mm 0.00 in0.0 mm 0.01 in0.3 mm
11:30 AM 53.1°F11.7°C 42.1°F5.6°C 66% 6.4 mph NNW10.3 kmh NNW 14.3 mph23.0 kmh 29.65 in1004.1 mb 0.00 in0.0 mm 0.00 in0.0 mm 0.01 in0.3 mm
11:15 AM 52.6°F11.4°C 42.3°F5.7°C 68% 4.5 mph WSW7.2 kmh WSW 19.9 mph32.0 kmh 29.65 in1004.1 mb 0.00 in0.0 mm 0.00 in0.0 mm 0.01 in0.3 mm
11:00 AM 52.8°F11.6°C 43.3°F6.3°C 70% 6.3 mph W10.1 kmh W 15.1 mph24.3 kmh 29.64 in1003.7 mb 0.00 in0.0 mm 0.00 in0.0 mm 0.01 in0.3 mm
10:45 AM 52.4°F11.3°C 45.4°F7.4°C 77% 6.1 mph W9.8 kmh W 15.1 mph24.3 kmh 29.64 in1003.7 mb 0.00 in0.0 mm 0.00 in0.0 mm 0.01 in0.3 mm
10:30 AM 51.9°F11.1°C 45.2°F7.3°C 78% 6.8 mph WSW10.9 kmh WSW 17.1 mph27.5 kmh 29.65 in1004.1 mb 0.00 in0.0 mm 0.00 in0.0 mm 0.01 in0.3 mm
10:15 AM 51.9°F11.1°C 45.9°F7.7°C 80% 7.5 mph SW12.1 kmh SW 16.2 mph26.1 kmh 29.65 in1004.1 mb 0.00 in0.0 mm 0.00 in0.0 mm 0.01 in0.3 mm
10:00 AM 51.9°F11.1°C 46.2°F7.9°C 81% 9.3 mph WSW15.0 kmh WSW 21.8 mph35.1 kmh 29.65 in1004.1 mb 0.00 in0.0 mm 0.00 in0.0 mm 0.01 in0.3 mm
09:45 AM 51.5°F10.8°C 46.2°F7.9°C 82% 6.5 mph SW10.5 kmh SW 17.1 mph27.5 kmh 29.65 in1004.1 mb 0.00 in0.0 mm 0.00 in0.0 mm 0.01 in0.3 mm
09:30 AM 51.2°F10.7°C 46.8°F8.2°C 85% 6.9 mph SW11.1 kmh SW 17.1 mph27.5 kmh 29.65 in1004.1 mb 0.00 in0.0 mm 0.00 in0.0 mm 0.01 in0.3 mm
09:15 AM 50.8°F10.4°C 47.4°F8.6°C 88% 5.8 mph WSW9.3 kmh WSW 15.1 mph24.3 kmh 29.65 in1004.1 mb 0.00 in0.0 mm 0.00 in0.0 mm 0.01 in0.3 mm
09:00 AM 50.3°F10.2°C 48.3°F9.1°C 93% 5.7 mph W9.2 kmh W 16.2 mph26.1 kmh 29.65 in1004.1 mb 0.00 in0.0 mm 0.00 in0.0 mm 0.01 in0.3 mm
08:45 AM 49.7°F9.8°C 48.1°F8.9°C 94% 4.8 mph SW7.7 kmh SW 14.3 mph23.0 kmh 29.64 in1003.7 mb 0.00 in0.0 mm 0.00 in0.0 mm 0.01 in0.3 mm
08:30 AM 49.2°F9.6°C 47.5°F8.6°C 94% 4.7 mph SW7.6 kmh SW 10.3 mph16.6 kmh 29.63 in1003.4 mb 0.01 in0.3 mm 0.00 in0.0 mm 0.01 in0.3 mm
08:15 AM 48.8°F9.3°C 47.5°F8.6°C 95% 3.7 mph WSW6.0 kmh WSW 10.3 mph16.6 kmh 29.63 in1003.4 mb 0.01 in0.3 mm 0.00 in0.0 mm 0.01 in0.3 mm
08:00 AM 48.8°F9.3°C 46.9°F8.3°C 93% 2.8 mph SSW4.5 kmh SSW 6.7 mph10.8 kmh 29.62 in1003.0 mb 0.01 in0.3 mm 0.00 in0.0 mm 0.01 in0.3 mm
07:45 AM 49.4°F9.7°C 46.0°F7.8°C 88% 4.3 mph SW6.9 kmh SW 16.2 mph26.1 kmh 29.62 in1003.0 mb 0.01 in0.3 mm 0.04 in1.0 mm 0.01 in0.3 mm
07:30 AM 50.3°F10.2°C 45.0°F7.2°C 82% 5.3 mph WSW8.5 kmh WSW 18.2 mph29.3 kmh 29.61 in1002.7 mb 0.00 in0.0 mm 0.00 in0.0 mm 0.00 in0.0 mm
07:15 AM 51.7°F10.9°C 43.7°F6.5°C 74% 7.9 mph SW12.7 kmh SW 21.0 mph33.8 kmh 29.60 in1002.4 mb 0.00 in0.0 mm 0.00 in0.0 mm 0.00 in0.0 mm
07:00 AM 51.9°F11.1°C 42.8°F6.0°C 71% 8.0 mph SW12.9 kmh SW 21.0 mph33.8 kmh 29.60 in1002.4 mb 0.00 in0.0 mm 0.00 in0.0 mm 0.00 in0.0 mm
06:45 AM 52.1°F11.2°C 42.6°F5.9°C 70% 8.1 mph SW13.0 kmh SW 19.0 mph30.6 kmh 29.59 in1002.0 mb 0.00 in0.0 mm 0.00 in0.0 mm 0.00 in0.0 mm
06:30 AM 52.2°F11.2°C 42.4°F5.8°C 69% 7.1 mph SW11.4 kmh SW 17.1 mph27.5 kmh 29.59 in1002.0 mb 0.00 in0.0 mm 0.00 in0.0 mm 0.00 in0.0 mm
06:15 AM 52.2°F11.2°C 42.4°F5.8°C 69% 6.5 mph SW10.5 kmh SW 19.9 mph32.0 kmh 29.58 in1001.7 mb 0.00 in0.0 mm 0.00 in0.0 mm 0.00 in0.0 mm
06:00 AM 52.2°F11.2°C 42.4°F5.8°C 69% 6.2 mph SSW10.0 kmh SSW 15.1 mph24.3 kmh 29.59 in1002.0 mb 0.00 in0.0 mm 0.00 in0.0 mm 0.00 in0.0 mm
05:45 AM 52.2°F11.2°C 42.0°F5.6°C 68% 7.3 mph S11.7 kmh S 17.1 mph27.5 kmh 29.58 in1001.7 mb 0.00 in0.0 mm 0.00 in0.0 mm 0.00 in0.0 mm
05:30 AM 52.4°F11.3°C 41.8°F5.4°C 67% 9.0 mph SW14.5 kmh SW 21.0 mph33.8 kmh 29.58 in1001.7 mb 0.00 in0.0 mm 0.00 in0.0 mm 0.00 in0.0 mm
05:15 AM 52.4°F11.3°C 41.8°F5.4°C 67% 6.3 mph SSW10.1 kmh SSW 19.0 mph30.6 kmh 29.58 in1001.7 mb 0.00 in0.0 mm 0.00 in0.0 mm 0.00 in0.0 mm
05:00 AM 52.6°F11.4°C 40.8°F4.9°C 64% 8.7 mph SSW14.0 kmh SSW 24.6 mph39.6 kmh 29.58 in1001.7 mb 0.00 in0.0 mm 0.00 in0.0 mm 0.00 in0.0 mm
04:45 AM 52.6°F11.4°C 40.4°F4.7°C 63% 8.5 mph SSW13.7 kmh SSW 24.6 mph39.6 kmh 29.59 in1002.0 mb 0.00 in0.0 mm 0.00 in0.0 mm 0.00 in0.0 mm
04:30 AM 52.8°F11.6°C 40.1°F4.5°C 62% 6.7 mph SW10.8 kmh SW 18.2 mph29.3 kmh 29.59 in1002.0 mb 0.00 in0.0 mm 0.00 in0.0 mm 0.00 in0.0 mm
04:15 AM 52.8°F11.6°C 39.7°F4.3°C 61% 7.3 mph SW11.7 kmh SW 16.2 mph26.1 kmh 29.59 in1002.0 mb 0.00 in0.0 mm 0.00 in0.0 mm 0.00 in0.0 mm
04:00 AM 53.1°F11.7°C 39.2°F4.0°C 59% 8.8 mph SW14.2 kmh SW 18.2 mph29.3 kmh 29.59 in1002.0 mb 0.00 in0.0 mm 0.00 in0.0 mm 0.00 in0.0 mm
03:45 AM 53.1°F11.7°C 38.7°F3.7°C 58% 6.7 mph SW10.8 kmh SW 16.2 mph26.1 kmh 29.60 in1002.4 mb 0.00 in0.0 mm 0.00 in0.0 mm 0.00 in0.0 mm
03:30 AM 53.3°F11.8°C 38.9°F3.8°C 58% 7.1 mph SSW11.4 kmh SSW 17.1 mph27.5 kmh 29.61 in1002.7 mb 0.00 in0.0 mm 0.00 in0.0 mm 0.00 in0.0 mm
03:15 AM 53.5°F11.9°C 38.6°F3.7°C 57% 7.7 mph SW12.4 kmh SW 17.1 mph27.5 kmh 29.62 in1003.0 mb 0.00 in0.0 mm 0.00 in0.0 mm 0.00 in0.0 mm
03:00 AM 53.7°F12.1°C 38.8°F3.8°C 57% 7.6 mph SSW12.2 kmh SSW 18.2 mph29.3 kmh 29.62 in1003.0 mb 0.00 in0.0 mm 0.00 in0.0 mm 0.00 in0.0 mm
02:45 AM 53.7°F12.1°C 38.8°F3.8°C 57% 7.5 mph SW12.1 kmh SW 21.8 mph35.1 kmh 29.64 in1003.7 mb 0.00 in0.0 mm 0.00 in0.0 mm 0.00 in0.0 mm
02:30 AM 53.9°F12.2°C 39.0°F3.9°C 57% 8.2 mph SSW13.2 kmh SSW 17.1 mph27.5 kmh 29.64 in1003.7 mb 0.00 in0.0 mm 0.00 in0.0 mm 0.00 in0.0 mm
02:15 AM 53.9°F12.2°C 39.0°F3.9°C 57% 6.5 mph SSW10.5 kmh SSW 16.2 mph26.1 kmh 29.64 in1003.7 mb 0.00 in0.0 mm 0.00 in0.0 mm 0.00 in0.0 mm
02:00 AM 53.7°F12.1°C 38.8°F3.8°C 57% 5.4 mph SW8.7 kmh SW 16.2 mph26.1 kmh 29.64 in1003.7 mb 0.00 in0.0 mm 0.00 in0.0 mm 0.00 in0.0 mm
01:45 AM 53.9°F12.2°C 38.5°F3.6°C 56% 6.2 mph SSW10.0 kmh SSW 16.2 mph26.1 kmh 29.65 in1004.1 mb 0.00 in0.0 mm 0.00 in0.0 mm 0.00 in0.0 mm
01:30 AM 54.0°F12.2°C 37.8°F3.2°C 54% 6.3 mph SSW10.1 kmh SSW 15.1 mph24.3 kmh 29.66 in1004.4 mb 0.00 in0.0 mm 0.00 in0.0 mm 0.00 in0.0 mm
01:15 AM 54.2°F12.3°C 37.0°F2.8°C 52% 4.5 mph SSW7.2 kmh SSW 12.3 mph19.8 kmh 29.66 in1004.4 mb 0.00 in0.0 mm 0.00 in0.0 mm 0.00 in0.0 mm
01:00 AM 54.2°F12.3°C 36.5°F2.5°C 51% 6.1 mph SW9.8 kmh SW 13.4 mph21.6 kmh 29.66 in1004.4 mb 0.00 in0.0 mm 0.00 in0.0 mm 0.00 in0.0 mm
12:45 AM 54.2°F12.3°C 37.0°F2.8°C 52% 4.4 mph SSW7.1 kmh SSW 15.1 mph24.3 kmh 29.68 in1005.1 mb 0.00 in0.0 mm 0.00 in0.0 mm 0.00 in0.0 mm
12:30 AM 53.9°F12.2°C 36.6°F2.6°C 52% 4.2 mph S6.8 kmh S 13.4 mph21.6 kmh 29.68 in1005.1 mb 0.00 in0.0 mm 0.00 in0.0 mm 0.00 in0.0 mm
12:15 AM 53.5°F11.9°C 37.7°F3.2°C 55% 4.8 mph SW7.7 kmh SW 14.3 mph23.0 kmh 29.68 in1005.1 mb 0.00 in0.0 mm 0.00 in0.0 mm 0.00 in0.0 mm
12:00 AM 53.5°F11.9°C 37.7°F3.2°C 55% 5.4 mph SW8.7 kmh SW 15.1 mph24.3 kmh 29.70 in1005.8 mb 0.00 in0.0 mm 0.00 in0.0 mm 0.00 in0.0 mm